createdAt,value
2022-12-06T00:01:39.712Z,34.33
2022-12-06T00:04:11.955Z,34.97
2022-12-06T00:06:48.178Z,32.83
2022-12-06T00:09:24.712Z,32.37
2022-12-06T00:11:53.272Z,32.27
2022-12-06T00:14:21.866Z,31.50
2022-12-06T00:16:50.411Z,31.77
2022-12-06T00:19:21.544Z,31.47
2022-12-06T00:21:48.992Z,31.20
2022-12-06T00:24:20.179Z,29.83
2022-12-06T00:26:49.346Z,30.83
2022-12-06T00:29:24.580Z,31.27
2022-12-06T00:31:52.293Z,30.93
2022-12-06T00:34:19.803Z,31.93
2022-12-06T00:36:48.019Z,32.27
2022-12-06T00:39:17.792Z,31.37
2022-12-06T00:41:45.797Z,31.23
2022-12-06T00:44:13.393Z,31.70
2022-12-06T00:46:41.400Z,30.07
2022-12-06T00:49:10.007Z,31.67
2022-12-06T00:51:38.917Z,31.47
2022-12-06T00:54:08.177Z,30.87
2022-12-06T00:56:37.383Z,33.30
2022-12-06T00:59:05.595Z,31.73
2022-12-06T01:01:36.334Z,31.23
2022-12-06T01:04:06.907Z,32.47
2022-12-06T01:06:37.019Z,31.80
2022-12-06T01:09:09.717Z,30.70
2022-12-06T01:11:37.931Z,31.10
2022-12-06T01:14:05.515Z,36.00
2022-12-06T01:16:34.552Z,35.23
2022-12-06T01:19:06.172Z,31.40
2022-12-06T01:21:33.708Z,31.47
2022-12-06T01:24:01.063Z,30.73
2022-12-06T01:26:32.220Z,29.67
2022-12-06T01:29:00.883Z,29.37
2022-12-06T01:31:37.214Z,29.57
2022-12-06T01:34:15.266Z,27.97
2022-12-06T01:36:43.923Z,28.23
2022-12-06T01:39:11.453Z,27.13
2022-12-06T01:41:40.199Z,27.63
2022-12-06T01:44:28.290Z,27.30
2022-12-06T01:46:55.968Z,27.73
2022-12-06T01:49:32.961Z,26.93
2022-12-06T01:52:04.368Z,25.67
2022-12-06T01:54:33.964Z,26.47
2022-12-06T01:57:04.294Z,26.73
2022-12-06T01:59:31.824Z,26.40
2022-12-06T02:01:59.614Z,27.27
2022-12-06T02:04:28.090Z,26.90
2022-12-06T02:06:57.415Z,25.77
2022-12-06T02:09:27.448Z,24.57
2022-12-06T02:11:54.921Z,24.20
2022-12-06T02:14:28.039Z,23.03
2022-12-06T02:17:10.677Z,23.07
2022-12-06T02:19:50.479Z,24.63
2022-12-06T02:22:26.601Z,26.57
2022-12-06T02:25:46.914Z,27.60
2022-12-06T02:29:05.514Z,26.83
2022-12-06T02:32:12.717Z,27.27
2022-12-06T02:34:58.435Z,26.60
2022-12-06T02:37:46.915Z,25.53
2022-12-06T02:40:33.933Z,25.90
2022-12-06T02:43:12.586Z,28.50
2022-12-06T02:45:47.543Z,29.83
2022-12-06T02:48:16.279Z,27.63
2022-12-06T02:50:54.986Z,27.77
2022-12-06T02:53:24.740Z,28.67
2022-12-06T02:55:53.175Z,27.70
2022-12-06T02:58:20.642Z,26.17
2022-12-06T03:00:55.157Z,25.10
2022-12-06T03:03:43.534Z,24.03
2022-12-06T03:06:35.162Z,23.67
2022-12-06T03:09:53.150Z,23.33
2022-12-06T03:12:46.893Z,23.00
2022-12-06T03:15:35.194Z,22.87
2022-12-06T03:18:34.640Z,21.97
2022-12-06T03:21:17.763Z,21.93
2022-12-06T03:23:48.738Z,22.97
2022-12-06T03:26:22.293Z,23.13
2022-12-06T03:28:52.369Z,23.10
2022-12-06T03:31:23.046Z,23.60
2022-12-06T03:33:59.719Z,22.40
2022-12-06T03:36:29.300Z,24.20
2022-12-06T03:39:02.247Z,23.57
2022-12-06T03:41:41.200Z,25.20
2022-12-06T03:44:08.769Z,24.07
2022-12-06T03:46:41.639Z,24.37
2022-12-06T03:49:17.471Z,25.30
2022-12-06T03:51:45.719Z,24.13
2022-12-06T03:54:13.333Z,25.13
2022-12-06T03:56:40.781Z,24.73
2022-12-06T03:59:10.900Z,26.27
2022-12-06T04:01:39.422Z,25.63
2022-12-06T04:04:07.242Z,25.67
2022-12-06T04:06:34.734Z,25.00
2022-12-06T04:09:20.912Z,28.00
2022-12-06T04:11:48.316Z,27.90
2022-12-06T04:14:15.880Z,26.93
2022-12-06T04:17:01.597Z,25.97
2022-12-06T04:19:29.096Z,27.73
2022-12-06T04:22:14.919Z,26.73
2022-12-06T04:24:42.400Z,26.27
2022-12-06T04:27:28.508Z,26.07
2022-12-06T04:30:14.401Z,25.37
2022-12-06T04:33:00.656Z,28.67
2022-12-06T04:35:46.562Z,29.33
2022-12-06T04:38:32.494Z,29.73
2022-12-06T04:40:59.936Z,28.77
2022-12-06T04:43:42.637Z,26.30
2022-12-06T04:46:13.630Z,26.13
2022-12-06T04:48:41.813Z,27.20
2022-12-06T04:51:13.235Z,27.30
2022-12-06T04:53:40.846Z,25.77
2022-12-06T04:56:08.308Z,26.27
2022-12-06T04:58:35.965Z,27.33
2022-12-06T05:01:03.749Z,26.63
2022-12-06T05:03:31.372Z,26.77
2022-12-06T05:05:58.871Z,27.67
2022-12-06T05:08:26.266Z,29.30
2022-12-06T05:10:53.906Z,26.37
2022-12-06T05:13:21.499Z,28.27
2022-12-06T05:15:54.612Z,30.47
2022-12-06T05:18:23.570Z,33.20
2022-12-06T05:20:52.304Z,32.63
2022-12-06T05:23:19.713Z,31.37
2022-12-06T05:25:47.128Z,30.67
2022-12-06T05:28:14.532Z,32.00
2022-12-06T05:30:42.057Z,31.03
2022-12-06T05:33:09.522Z,32.20
2022-12-06T05:35:39.649Z,31.97
2022-12-06T05:38:07.063Z,29.67
2022-12-06T05:40:34.488Z,30.30
2022-12-06T05:43:01.918Z,28.33
2022-12-06T05:45:29.376Z,28.97
2022-12-06T05:47:56.815Z,27.23
2022-12-06T05:50:24.330Z,27.37
2022-12-06T05:52:55.867Z,28.67
2022-12-06T05:55:23.947Z,29.10
2022-12-06T05:57:52.129Z,29.83
2022-12-06T06:00:20.748Z,29.93
2022-12-06T06:02:48.568Z,30.10
2022-12-06T06:05:16.254Z,30.60
2022-12-06T06:07:43.750Z,28.50
2022-12-06T06:10:11.529Z,29.37
2022-12-06T06:12:39.530Z,28.20
2022-12-06T06:15:07.661Z,27.73
2022-12-06T06:17:35.482Z,25.83
2022-12-06T06:20:06.847Z,23.57
2022-12-06T06:22:40.031Z,22.27
2022-12-06T06:25:08.553Z,20.23
2022-12-06T06:27:37.936Z,19.43
2022-12-06T06:30:08.935Z,19.47
2022-12-06T06:32:36.741Z,20.73
2022-12-06T06:35:06.076Z,19.77
2022-12-06T06:37:34.006Z,23.80
2022-12-06T06:40:02.333Z,12.47
2022-12-06T06:42:30.035Z,10.33
2022-12-06T06:44:57.628Z,9.13
2022-12-06T06:47:25.056Z,8.10
2022-12-06T06:49:52.505Z,8.67
2022-12-06T06:52:20.270Z,9.43
2022-12-06T06:54:47.709Z,11.03
2022-12-06T06:57:17.870Z,11.00
2022-12-06T06:59:46.248Z,12.23
2022-12-06T07:02:17.054Z,11.17
2022-12-06T07:04:45.620Z,11.90
2022-12-06T07:07:19.406Z,13.70
2022-12-06T07:09:48.571Z,13.13
2022-12-06T07:12:15.959Z,12.37
2022-12-06T07:14:43.364Z,12.07
2022-12-06T07:17:10.899Z,9.90
2022-12-06T07:19:38.400Z,12.03
2022-12-06T07:22:05.820Z,11.03
2022-12-06T07:24:38.363Z,11.03
2022-12-06T07:27:08.902Z,11.40
2022-12-06T07:29:36.326Z,10.63
2022-12-06T07:32:03.816Z,11.60
2022-12-06T07:34:31.598Z,10.03
2022-12-06T07:36:59.280Z,8.80
2022-12-06T07:39:26.894Z,9.97
2022-12-06T07:42:12.984Z,16.07
2022-12-06T07:45:01.913Z,11.37
2022-12-06T07:47:39.090Z,13.93
2022-12-06T07:50:16.103Z,27.73
2022-12-06T07:52:46.273Z,23.90
2022-12-06T07:55:15.125Z,13.23
2022-12-06T07:57:44.158Z,81.50
2022-12-06T08:00:16.355Z,9.83
2022-12-06T08:02:44.462Z,9.03
2022-12-06T08:05:12.761Z,16.87
2022-12-06T08:07:40.746Z,9.70
2022-12-06T08:10:09.070Z,11.47
2022-12-06T08:12:36.783Z,14.50
2022-12-06T08:15:04.698Z,12.13
2022-12-06T08:17:32.182Z,12.33
2022-12-06T08:19:59.906Z,12.87
2022-12-06T08:22:29.226Z,9.83
2022-12-06T08:24:56.692Z,14.80
2022-12-06T08:27:24.208Z,27.13
2022-12-06T08:29:51.759Z,171.13
2022-12-06T08:32:19.408Z,81.30
2022-12-06T08:34:46.913Z,42.60
2022-12-06T08:37:14.315Z,32.83
2022-12-06T08:39:42.071Z,14.80
2022-12-06T08:42:10.454Z,7.37
2022-12-06T08:44:37.815Z,9.57
2022-12-06T08:47:05.639Z,71.20
2022-12-06T08:49:33.270Z,72.63
2022-12-06T08:52:00.938Z,9.40
2022-12-06T08:54:29.524Z,7.57
2022-12-06T08:56:57.074Z,7.63
2022-12-06T08:59:24.576Z,8.53
2022-12-06T09:01:52.087Z,8.27
2022-12-06T09:04:19.732Z,7.20
2022-12-06T09:06:47.509Z,7.53
2022-12-06T09:09:18.087Z,14.20
2022-12-06T09:11:46.250Z,16.63
2022-12-06T09:14:21.845Z,9.27
2022-12-06T09:16:52.544Z,7.40
2022-12-06T09:19:20.919Z,7.83
2022-12-06T09:21:48.444Z,10.07
2022-12-06T09:24:18.876Z,8.73
2022-12-06T09:26:46.979Z,7.93
2022-12-06T09:29:16.284Z,6.87
2022-12-06T09:31:43.853Z,8.43
2022-12-06T09:34:13.095Z,18.47
2022-12-06T09:36:50.913Z,15.57
2022-12-06T09:39:39.087Z,6.57
2022-12-06T09:43:15.863Z,7.23
2022-12-06T09:46:19.402Z,7.07
2022-12-06T09:49:15.574Z,7.17
2022-12-06T09:51:57.758Z,6.57
2022-12-06T09:55:00.472Z,7.00
2022-12-06T09:57:37.238Z,7.00
2022-12-06T10:00:15.435Z,7.10
2022-12-06T10:03:23.563Z,7.10
2022-12-06T10:05:55.502Z,6.80
2022-12-06T10:08:46.130Z,7.10
2022-12-06T10:11:41.094Z,6.50
2022-12-06T10:15:01.045Z,7.83
2022-12-06T10:17:43.358Z,7.17
2022-12-06T10:20:45.876Z,7.10
2022-12-06T10:23:32.377Z,6.97
2022-12-06T10:26:37.446Z,7.30
2022-12-06T10:29:43.547Z,13.57
2022-12-06T10:32:40.136Z,7.93
2022-12-06T10:35:16.223Z,9.30
2022-12-06T10:37:55.414Z,8.67
2022-12-06T10:40:35.837Z,9.23
2022-12-06T10:43:18.672Z,8.83
2022-12-06T10:46:40.490Z,8.23
2022-12-06T10:49:50.704Z,8.43
2022-12-06T10:52:40.983Z,8.63
2022-12-06T10:55:26.078Z,7.87
2022-12-06T10:58:26.332Z,7.13
2022-12-06T11:01:09.377Z,7.17
2022-12-06T11:04:29.440Z,7.10
2022-12-06T11:07:06.172Z,8.23
2022-12-06T11:09:45.544Z,7.03
2022-12-06T11:12:31.255Z,6.90
2022-12-06T11:15:19.643Z,6.90
2022-12-06T11:18:16.077Z,6.80
2022-12-06T11:21:02.480Z,7.10
2022-12-06T11:23:56.785Z,7.43
2022-12-06T11:26:45.302Z,7.27
2022-12-06T11:29:15.462Z,6.97
2022-12-06T11:32:12.003Z,6.70
2022-12-06T11:34:48.354Z,6.53
2022-12-06T11:37:22.691Z,7.20
2022-12-06T11:40:08.988Z,7.33
2022-12-06T11:42:36.456Z,13.23
2022-12-06T11:45:14.695Z,11.77
2022-12-06T11:47:42.340Z,6.47
2022-12-06T11:50:19.337Z,7.97
2022-12-06T11:52:50.369Z,9.03
2022-12-06T11:55:26.053Z,8.47
2022-12-06T11:58:01.911Z,8.80
2022-12-06T12:00:31.241Z,12.40
2022-12-06T12:02:58.944Z,7.37
2022-12-06T12:05:35.355Z,8.30
2022-12-06T12:08:07.758Z,8.90
2022-12-06T12:10:41.793Z,7.10
2022-12-06T12:13:33.595Z,9.73
2022-12-06T12:16:48.667Z,9.70
2022-12-06T12:19:47.584Z,8.70
2022-12-06T12:22:35.535Z,8.90
2022-12-06T12:25:25.757Z,7.03
2022-12-06T12:27:56.367Z,9.70
2022-12-06T12:30:37.944Z,6.27
2022-12-06T12:33:08.178Z,5.90
2022-12-06T12:35:39.383Z,6.90
2022-12-06T12:38:19.276Z,6.10
2022-12-06T12:40:55.292Z,6.70
2022-12-06T12:43:32.933Z,6.23
2022-12-06T12:46:11.546Z,5.60
2022-12-06T12:48:42.133Z,5.70
2022-12-06T12:51:36.828Z,6.37
2022-12-06T12:54:19.435Z,6.40
2022-12-06T12:56:46.929Z,5.70
2022-12-06T12:59:22.179Z,6.60
2022-12-06T13:02:18.391Z,6.47
2022-12-06T13:05:31.317Z,5.70
2022-12-06T13:07:56.277Z,6.40
2022-12-06T13:10:37.967Z,5.83
2022-12-06T13:13:57.148Z,5.90
2022-12-06T13:16:35.840Z,6.00
2022-12-06T13:19:04.023Z,6.33
2022-12-06T13:21:40.444Z,5.80
2022-12-06T13:24:10.878Z,5.50
2022-12-06T13:26:54.306Z,5.50
2022-12-06T13:29:24.666Z,5.23
2022-12-06T13:31:54.133Z,5.13
2022-12-06T13:34:43.640Z,5.07
2022-12-06T13:37:33.046Z,4.80
2022-12-06T13:40:01.663Z,5.00
2022-12-06T13:42:38.190Z,4.70
2022-12-06T13:45:27.198Z,4.93
2022-12-06T13:47:54.650Z,5.40
2022-12-06T13:50:21.962Z,5.50
2022-12-06T13:52:49.697Z,4.87
2022-12-06T13:55:26.135Z,5.23
2022-12-06T13:58:16.839Z,5.30
2022-12-06T14:00:44.174Z,5.40
2022-12-06T14:03:17.275Z,5.23
2022-12-06T14:06:15.169Z,5.17
2022-12-06T14:08:59.634Z,6.40
2022-12-06T14:11:38.150Z,5.80
2022-12-06T14:14:25.237Z,5.60
2022-12-06T14:17:04.680Z,6.50
2022-12-06T14:19:46.430Z,14.10
2022-12-06T14:22:33.605Z,11.30
2022-12-06T14:25:34.932Z,7.63
2022-12-06T14:28:13.388Z,7.80
2022-12-06T14:30:41.531Z,12.20
2022-12-06T14:33:23.224Z,7.17
2022-12-06T14:35:54.948Z,6.63
2022-12-06T14:38:31.278Z,6.90
2022-12-06T14:41:17.052Z,15.50
2022-12-06T14:43:47.948Z,13.93
2022-12-06T14:46:17.924Z,16.53
2022-12-06T14:49:04.899Z,12.00
2022-12-06T14:51:38.812Z,14.47
2022-12-06T14:54:20.385Z,16.03
2022-12-06T14:56:48.223Z,6.87
2022-12-06T14:59:33.372Z,19.70
2022-12-06T15:02:28.758Z,9.87
2022-12-06T15:04:56.510Z,10.40
2022-12-06T15:07:50.617Z,8.30
2022-12-06T15:10:32.779Z,7.97
2022-12-06T15:13:16.351Z,7.17
2022-12-06T15:15:47.500Z,8.00
2022-12-06T15:18:27.729Z,8.13
2022-12-06T15:20:55.880Z,10.67
2022-12-06T15:23:30.537Z,8.17
2022-12-06T15:25:58.437Z,13.90
2022-12-06T15:28:25.916Z,13.23
2022-12-06T15:30:54.243Z,9.20
2022-12-06T15:33:24.459Z,9.93
2022-12-06T15:35:52.473Z,9.13
2022-12-06T15:38:20.391Z,8.77
2022-12-06T15:40:53.115Z,12.73
2022-12-06T15:43:32.023Z,7.80
2022-12-06T15:46:02.783Z,7.43
2022-12-06T15:48:35.139Z,7.57
2022-12-06T15:51:09.264Z,7.60
2022-12-06T15:53:38.183Z,14.00
2022-12-06T15:56:05.836Z,15.07
2022-12-06T15:58:33.319Z,8.10
2022-12-06T16:01:00.792Z,7.87
2022-12-06T16:03:28.245Z,7.67
2022-12-06T16:05:57.506Z,7.40
2022-12-06T16:08:24.962Z,7.40
2022-12-06T16:13:40.123Z,9.40
2022-12-06T16:16:08.990Z,7.47
2022-12-06T16:18:36.976Z,7.40
2022-12-06T16:21:06.180Z,7.93
2022-12-06T16:26:43.957Z,8.00
2022-12-06T16:29:21.050Z,7.60
2022-12-06T16:31:49.004Z,7.70
2022-12-06T16:34:16.982Z,7.47
2022-12-06T16:37:06.759Z,7.97
2022-12-06T16:39:35.458Z,9.97
2022-12-06T16:42:05.116Z,10.80
2022-12-06T16:44:32.664Z,8.50
2022-12-06T16:47:00.471Z,8.90
2022-12-06T16:49:45.710Z,8.73
2022-12-06T16:52:13.665Z,9.17
2022-12-06T16:54:42.066Z,8.27
2022-12-06T16:57:12.289Z,9.93
2022-12-06T16:59:40.701Z,8.70
2022-12-06T17:02:24.642Z,8.93
2022-12-06T17:04:52.489Z,9.80
2022-12-06T17:07:19.946Z,9.60
2022-12-06T17:09:47.523Z,9.17
2022-12-06T17:12:15.491Z,9.20
2022-12-06T17:14:43.668Z,8.97
2022-12-06T17:17:17.454Z,9.13
2022-12-06T17:19:45.051Z,8.87
2022-12-06T17:22:16.475Z,8.77
2022-12-06T17:24:44.440Z,9.17
2022-12-06T17:27:15.079Z,9.00
2022-12-06T17:29:44.348Z,9.20
2022-12-06T17:32:13.031Z,9.47
2022-12-06T17:34:40.530Z,9.07
2022-12-06T17:37:08.117Z,9.63
2022-12-06T17:39:35.724Z,8.70
2022-12-06T17:42:21.677Z,9.93
2022-12-06T17:44:51.841Z,8.83
2022-12-06T17:47:19.845Z,8.93
2022-12-06T17:49:47.614Z,8.53
2022-12-06T17:52:15.580Z,9.13
2022-12-06T17:54:43.361Z,9.43
2022-12-06T17:57:17.567Z,9.47
2022-12-06T17:59:48.839Z,8.73
2022-12-06T18:02:20.001Z,8.50
2022-12-06T18:04:48.426Z,8.90
2022-12-06T18:07:17.896Z,8.43
2022-12-06T18:09:46.039Z,7.60
2022-12-06T18:12:16.068Z,7.17
2022-12-06T18:14:45.085Z,7.20
2022-12-06T18:17:12.841Z,7.63
2022-12-06T18:19:41.030Z,7.97
2022-12-06T18:22:08.886Z,8.33
2022-12-06T18:24:36.653Z,8.43
2022-12-06T18:27:07.840Z,7.47
2022-12-06T18:29:35.464Z,7.10
2022-12-06T18:32:03.025Z,7.97
2022-12-06T18:34:30.914Z,7.53
2022-12-06T18:36:58.404Z,7.77
2022-12-06T18:39:26.133Z,7.80
2022-12-06T18:41:54.763Z,7.50
2022-12-06T18:44:23.289Z,7.63
2022-12-06T18:46:51.017Z,7.90
2022-12-06T18:49:18.704Z,8.23
2022-12-06T18:51:46.126Z,8.10
2022-12-06T18:54:14.296Z,7.80
2022-12-06T18:56:42.287Z,7.80
2022-12-06T18:59:11.507Z,7.80
2022-12-06T19:01:40.304Z,8.13
2022-12-06T19:04:13.327Z,8.07
2022-12-06T19:06:40.893Z,8.13
2022-12-06T19:09:12.403Z,7.80
2022-12-06T19:11:43.802Z,8.00
2022-12-06T19:14:11.605Z,7.80
2022-12-06T19:16:42.521Z,7.07
2022-12-06T19:19:17.201Z,7.90
2022-12-06T19:21:49.831Z,7.37
2022-12-06T19:24:22.339Z,7.20
2022-12-06T19:26:52.541Z,7.20
2022-12-06T19:29:20.417Z,7.23
2022-12-06T19:31:48.130Z,7.00
2022-12-06T19:34:23.121Z,7.67
2022-12-06T19:36:53.067Z,7.73
2022-12-06T19:39:21.562Z,7.90
2022-12-06T19:42:07.859Z,7.53
2022-12-06T19:44:35.688Z,7.47
2022-12-06T19:47:03.272Z,7.40
2022-12-06T19:49:31.409Z,7.50
2022-12-06T19:51:58.884Z,6.77
2022-12-06T19:54:30.247Z,7.40
2022-12-06T19:57:00.571Z,7.50
2022-12-06T19:59:34.654Z,7.20
2022-12-06T20:02:03.453Z,6.97
2022-12-06T20:04:34.607Z,7.40
2022-12-06T20:07:02.520Z,7.70
2022-12-06T20:09:32.708Z,7.43
2022-12-06T20:12:02.728Z,7.97
2022-12-06T20:14:35.708Z,7.30
2022-12-06T20:17:06.836Z,8.00
2022-12-06T20:19:34.787Z,8.40
2022-12-06T20:22:03.318Z,7.97
2022-12-06T20:24:32.694Z,8.40
2022-12-06T20:27:00.163Z,8.27
2022-12-06T20:29:30.254Z,8.37
2022-12-06T20:31:59.651Z,8.47
2022-12-06T20:34:34.212Z,7.37
2022-12-06T20:37:04.090Z,7.97
2022-12-06T20:39:36.047Z,8.33
2022-12-06T20:42:07.178Z,8.80
2022-12-06T20:44:35.737Z,9.43
2022-12-06T20:47:03.832Z,8.87
2022-12-06T20:49:31.568Z,8.90
2022-12-06T20:52:02.304Z,9.23
2022-12-06T20:54:29.757Z,8.47
2022-12-06T20:56:57.196Z,9.03
2022-12-06T20:59:24.640Z,8.57
2022-12-06T21:01:52.210Z,9.03
2022-12-06T21:04:19.709Z,8.60
2022-12-06T21:06:47.206Z,8.87
2022-12-06T21:09:14.710Z,9.20
2022-12-06T21:11:42.185Z,9.27
2022-12-06T21:14:13.142Z,8.33
2022-12-06T21:16:42.502Z,8.20
2022-12-06T21:19:18.011Z,8.37
2022-12-06T21:21:53.423Z,9.03
2022-12-06T21:24:22.594Z,8.60
2022-12-06T21:26:50.396Z,8.33
2022-12-06T21:29:30.616Z,8.40
2022-12-06T21:32:01.767Z,8.67
2022-12-06T21:34:29.512Z,8.80
2022-12-06T21:36:57.096Z,8.60
2022-12-06T21:39:24.524Z,9.13
2022-12-06T21:41:53.279Z,9.13
2022-12-06T21:44:20.739Z,9.33
2022-12-06T21:46:52.697Z,9.37
2022-12-06T21:49:20.466Z,9.00
2022-12-06T21:51:48.032Z,8.40
2022-12-06T21:54:15.445Z,8.40
2022-12-06T21:56:42.981Z,8.80
2022-12-06T21:59:10.457Z,8.97
2022-12-06T22:01:39.029Z,9.27
2022-12-06T22:04:06.592Z,9.40
2022-12-06T22:06:36.357Z,8.97
2022-12-06T22:09:06.690Z,8.77
2022-12-06T22:11:35.856Z,9.00
2022-12-06T22:14:05.075Z,8.70
2022-12-06T22:16:32.798Z,8.30
2022-12-06T22:19:00.435Z,8.50
2022-12-06T22:21:31.140Z,8.07
2022-12-06T22:23:59.325Z,8.60
2022-12-06T22:26:29.908Z,8.40
2022-12-06T22:28:59.440Z,7.90
2022-12-06T22:31:36.236Z,8.47
2022-12-06T22:34:04.180Z,8.17
2022-12-06T22:36:32.699Z,8.23
2022-12-06T22:39:02.952Z,8.40
2022-12-06T22:41:30.944Z,8.13
2022-12-06T22:44:01.614Z,7.70
2022-12-06T22:46:30.572Z,8.43
2022-12-06T22:49:00.396Z,7.77
2022-12-06T22:51:33.241Z,8.50
2022-12-06T22:54:09.224Z,8.17
2022-12-06T22:56:36.751Z,8.00
2022-12-06T22:59:04.536Z,8.37
2022-12-06T23:01:35.243Z,8.27
2022-12-06T23:04:06.534Z,8.10
2022-12-06T23:06:35.821Z,8.07
2022-12-06T23:09:05.968Z,7.80
2022-12-06T23:11:36.611Z,8.30
2022-12-06T23:14:04.728Z,7.40
2022-12-06T23:16:33.210Z,8.30
2022-12-06T23:19:02.440Z,7.93
2022-12-06T23:21:36.435Z,7.70
2022-12-06T23:24:11.586Z,7.07
2022-12-06T23:26:43.457Z,7.30
2022-12-06T23:29:11.105Z,6.83
2022-12-06T23:31:42.335Z,7.00
2022-12-06T23:34:26.844Z,7.30
2022-12-06T23:36:55.458Z,6.73
2022-12-06T23:39:22.914Z,6.67
2022-12-06T23:41:50.490Z,6.70
2022-12-06T23:44:18.208Z,6.50
2022-12-06T23:46:46.137Z,7.10
2022-12-06T23:49:22.177Z,7.03
2022-12-06T23:51:50.296Z,7.27
2022-12-06T23:54:18.802Z,7.33
2022-12-06T23:56:46.763Z,6.77
2022-12-06T23:59:16.437Z,7.00
